PN05 weather

Fort Lee Heliport
Barnsboro, Pennsylvania, United States

Public forecast

Using degrees Fahrenheit for public forecast. Weather courtesy of forecast.io.

Closest aviation weather report (METAR) to Fort Lee Heliport

Closest report is Indiana County/Jimmy Stewart Fld/ Airport, 12.7 nm (23.6 km) W. Retrieved 2019/10/15 19:35 UTC (20 minutes ago):

KIDI 151935Z AUTO 16008KT 10SM CLR 19/06 A3004 RMK A01

Closest aviation forecast (TAF) to Fort Lee Heliport

Closest forecast is John Murtha Johnstown Cambria County Airport, 20.1 nm (37.3 km) S. Retrieved 2019/10/15 18:48 UTC (1 hour ago):

TAF KJST 151745Z 1518/1618 17007KT P6SM FEW040 FM160000 15008KT P6SM BKN200 FM160600 17008KT P6SM OVC100 FM161000 17010KT P6SM -SHRA OVC040 FM161200 17010G17KT 3SM -RA BR OVC007 TEMPO 1614/1618 2SM -RA BR OVC003